Share

Wilhelmshaven Mariensiel, Germany

Schortens (ILOWERSA3) Elev 30 ft | 53.54 °N, 7.95 °E | Change Station

Current weather conditions updated 11 minutes ago

Clear
Clear
45.5 °F
Feels Like 42 °F
N
6.0
Wind Variable Wind from WNW
Gusts 9.0 mph
Sunrise 6:21 AM
Sunset 8:33 PM
Moon Waning Gibbous

Today is forecast to be Much Cooler than yesterday. A few morning showers.

Pressure 29.80 in
Visibility -9999.0 miles
Clouds
Windchill 42 °F
Dew Point 45 °F
Humidity 99%
Rainfall 0.00 in
Snow Depth Not available.
UV Not available.
Pollen Not available.
Air Quality Not available.
Flu Activity Not available.
METAR EDDW 180020Z 27008KT CAVOK 06/05 Q1009

More Conditions Fewer Conditions

Pressure 29.80 in
Visibility -9999.0 miles
Clouds
Windchill 42 °F
Dew Point 45 °F
Humidity 99%
Rainfall 0.00 in
Snow Depth Not available.
UV Not available.
Pollen Not available.
Air Quality Not available.
Flu Activity Not available.
METAR EDDW 180020Z 27008KT CAVOK 06/05 Q1009

More Conditions Fewer Conditions

10-Day Forecast

Almanac

Astronomy

Apr. 18, 2014 Rise Set
Actual Time 6:21 AM CEST 8:33 PM CEST
Civil Twilight 5:43 AM CEST 9:11 PM CEST
Nautical Twilight 4:56 AM CEST 10:00 PM CEST
Astronomical Twilight 4:00 AM CEST 10:56 PM CEST
Moon No Moon Rise 8:10 AM CEST
Length of Visible Light 15h 28m
Length of Day
14h 12m
Tomorrow will be 4m 5s longer.
Waning Gibbous, 92% of the Moon is Illuminated
Apr 17
Waning Gibbous
Apr 22
Last Quarter
Apr 29
New
May 6
First Quarter
May 14
Full

Yesterday's Extremes

Country Highs Country Lows

Community

  • Morning Light
    Morning Light
  • New Day
    New Day
  • Lake Michigan Sunrise
    Lake Michigan Sunrise
  • sunset from izmir, narlıdere
    sunset from izmir, narlıdere
  • oregon cherry
    oregon cherry

WunderPhotos

Upload Photos

1,702,187 photos uploaded!

WunderBlogs® & News

Nearby

Snow Depth

Not available.

Coastal Water Temperatures

Place Temperature
No Stations Reporting

Earthquake Activity

City Distance Mag. Time & Date
No recent earthquake activity has been reported nearby.
Minimum magnitude displayed is 2.5.

Nearby Weather Stations

Station Location Temp. Windchill Dew Point Humidity Wind Precip. Elev Updated Type
Schortens, Heidmuehle 45.5 °F 42 °F 45 °F 99% WNW  at  6.0 mph 0.00 in / hr 30 ft 2:15 AM CEST Normal
Westerstede / Moorburg, Westerstede 43.9 °F 44 °F 42 °F 94% East  at  0.9 mph 0.00 in / hr 26 ft 2:26 AM CEST Rapid Fire
Eldstad, Westerstede 43.2 °F 43 °F 41 °F 93% WNW  at  2.7 mph 0.00 in / hr 10 ft 2:26 AM CEST Rapid Fire
W'ooge-Airport, Wangerooge 45.8 °F 38 °F 41 °F 84% WNW  at  20.0 mph 0.00 in / hr 6 ft 1:00 AM BST Normal
Nordsee/Schulte, Holtgast 45.9 °F 46 °F 40 °F 79% WSW  at  2.5 mph 0.00 in / hr 10 ft 2:26 AM CEST Rapid Fire

Show More Stations Show Fewer Stations

What do you think?

We're not finished. Please let us know what you like, what you don't like, and what you are still missing.